createdAt,value
2019-02-10T00:01:16.316Z,65.96
2019-02-10T00:03:45.652Z,65.96
2019-02-10T00:06:14.929Z,66.00
2019-02-10T00:08:44.242Z,66.00
2019-02-10T00:11:13.498Z,65.75
2019-02-10T00:13:42.839Z,65.75
2019-02-10T00:16:22.288Z,65.71
2019-02-10T00:18:51.573Z,65.61
2019-02-10T00:21:20.829Z,65.49
2019-02-10T00:23:50.067Z,65.98
2019-02-10T00:26:19.539Z,65.98
2019-02-10T00:28:48.814Z,65.48
2019-02-10T00:31:18.057Z,65.54
2019-02-10T00:33:47.318Z,65.54
2019-02-10T00:36:16.566Z,65.28
2019-02-10T00:38:45.952Z,65.80
2019-02-10T00:41:15.175Z,65.51
2019-02-10T00:43:44.482Z,65.94
2019-02-10T00:46:13.750Z,65.99
2019-02-10T00:48:43.088Z,66.30
2019-02-10T00:51:12.320Z,66.59
2019-02-10T00:53:41.628Z,66.57
2019-02-10T00:56:10.888Z,66.82
2019-02-10T00:58:40.225Z,66.96
2019-02-10T01:01:09.486Z,66.95
2019-02-10T01:03:38.722Z,66.98
2019-02-10T01:06:08.016Z,67.29
2019-02-10T01:08:37.234Z,67.52
2019-02-10T01:11:06.516Z,67.63
2019-02-10T01:13:35.753Z,67.61
2019-02-10T01:16:05.024Z,67.61
2019-02-10T01:18:34.300Z,67.38
2019-02-10T01:21:03.594Z,67.26
2019-02-10T01:23:32.886Z,67.25
2019-02-10T01:26:02.168Z,67.27
2019-02-10T01:28:31.544Z,67.30
2019-02-10T01:31:00.846Z,67.44
2019-02-10T01:33:30.117Z,67.39
2019-02-10T01:35:59.360Z,67.40
2019-02-10T01:38:28.594Z,67.32
2019-02-10T01:40:57.882Z,67.42
2019-02-10T01:43:27.208Z,67.48
2019-02-10T01:45:56.480Z,67.45
2019-02-10T01:48:27.372Z,67.40
2019-02-10T01:50:55.074Z,67.45
2019-02-10T01:53:24.298Z,67.41
2019-02-10T01:55:53.586Z,67.40
2019-02-10T01:58:22.901Z,67.40
2019-02-10T02:00:52.180Z,67.30
2019-02-10T02:03:21.457Z,67.29
2019-02-10T02:05:50.732Z,67.05
2019-02-10T02:08:19.980Z,67.45
2019-02-10T02:10:49.268Z,67.45
2019-02-10T02:13:18.552Z,67.68
2019-02-10T02:15:47.798Z,68.08
2019-02-10T02:18:17.195Z,68.27
2019-02-10T02:20:46.456Z,68.37
2019-02-10T02:23:15.772Z,68.29
2019-02-10T02:25:45.058Z,68.36
2019-02-10T02:28:14.374Z,68.33
2019-02-10T02:30:43.598Z,68.49
2019-02-10T02:33:12.871Z,68.80
2019-02-10T02:35:42.227Z,68.74
2019-02-10T02:38:11.470Z,68.76
2019-02-10T02:40:40.756Z,68.77
2019-02-10T02:43:10.026Z,68.73
2019-02-10T02:45:39.246Z,68.70
2019-02-10T02:48:08.523Z,68.71
2019-02-10T02:50:37.763Z,68.68
2019-02-10T02:53:07.037Z,68.79
2019-02-10T02:55:36.276Z,68.66
2019-02-10T02:58:05.554Z,68.85
2019-02-10T03:00:34.822Z,69.08
2019-02-10T03:03:04.094Z,69.21
2019-02-10T03:05:33.348Z,69.34
2019-02-10T03:08:02.588Z,69.40
2019-02-10T03:10:31.872Z,69.48
2019-02-10T03:13:01.125Z,69.52
2019-02-10T03:15:30.372Z,69.73
2019-02-10T03:17:59.628Z,69.71
2019-02-10T03:20:28.897Z,69.86
2019-02-10T03:22:58.250Z,69.86
2019-02-10T03:25:27.568Z,69.97
2019-02-10T03:27:56.932Z,70.01
2019-02-10T03:30:26.203Z,69.99
2019-02-10T03:32:55.523Z,69.97
2019-02-10T03:35:24.792Z,70.06
2019-02-10T03:37:54.080Z,70.14
2019-02-10T03:40:23.362Z,70.30
2019-02-10T03:42:52.611Z,70.08
2019-02-10T03:45:21.946Z,70.23
2019-02-10T03:47:51.198Z,70.21
2019-02-10T03:50:20.461Z,70.16
2019-02-10T03:52:49.692Z,70.32
2019-02-10T03:55:18.944Z,70.38
2019-02-10T03:57:48.218Z,70.39
2019-02-10T04:00:17.556Z,70.51
2019-02-10T04:02:46.776Z,70.32
2019-02-10T04:05:16.018Z,70.32
2019-02-10T04:07:45.278Z,70.46
2019-02-10T04:10:14.508Z,70.52
2019-02-10T04:12:43.824Z,70.55
2019-02-10T04:15:13.086Z,70.70
2019-02-10T04:17:42.400Z,70.75
2019-02-10T04:20:11.665Z,70.86
2019-02-10T04:22:41.042Z,71.03
2019-02-10T04:25:10.327Z,71.17
2019-02-10T04:27:39.585Z,71.30
2019-02-10T04:30:09.633Z,71.64
2019-02-10T04:32:38.556Z,71.58
2019-02-10T04:35:07.780Z,71.81
2019-02-10T04:37:45.375Z,71.96
2019-02-10T04:40:06.301Z,71.97
2019-02-10T04:42:35.655Z,71.91
2019-02-10T04:45:04.939Z,71.84
2019-02-10T04:47:34.238Z,72.20
2019-02-10T04:50:03.569Z,72.15
2019-02-10T04:52:32.866Z,72.40
2019-02-10T04:55:02.147Z,72.65
2019-02-10T04:57:31.434Z,72.73
2019-02-10T05:00:00.746Z,73.22
2019-02-10T05:02:30.081Z,73.67
2019-02-10T05:04:59.314Z,74.65
2019-02-10T05:07:28.588Z,74.94
2019-02-10T05:09:57.952Z,75.36
2019-02-10T05:12:27.264Z,75.29
2019-02-10T05:14:56.504Z,75.87
2019-02-10T05:17:25.764Z,76.34
2019-02-10T05:19:55.055Z,76.98
2019-02-10T05:22:24.328Z,77.62
2019-02-10T05:24:53.602Z,77.97
2019-02-10T05:27:22.959Z,78.41
2019-02-10T05:29:52.222Z,79.22
2019-02-10T05:32:21.459Z,79.46
2019-02-10T05:34:50.788Z,79.90
2019-02-10T05:37:20.058Z,80.30
2019-02-10T05:39:49.337Z,80.57
2019-02-10T05:42:18.660Z,80.86
2019-02-10T05:44:47.988Z,81.07
2019-02-10T05:47:19.205Z,80.90
2019-02-10T05:49:46.559Z,81.20
2019-02-10T05:52:15.868Z,81.77
2019-02-10T05:54:45.184Z,81.67
2019-02-10T05:57:14.458Z,81.91
2019-02-10T05:59:43.780Z,81.81
2019-02-10T06:02:21.207Z,82.10
2019-02-10T06:04:50.460Z,82.35
2019-02-10T06:07:19.860Z,82.27
2019-02-10T06:09:49.272Z,82.61
2019-02-10T06:12:18.571Z,82.43
2019-02-10T06:14:47.806Z,82.60
2019-02-10T06:17:17.033Z,82.50
2019-02-10T06:19:46.392Z,82.63
2019-02-10T06:22:15.645Z,83.04
2019-02-10T06:24:45.084Z,83.21
2019-02-10T06:27:14.362Z,83.27
2019-02-10T06:29:43.656Z,83.41
2019-02-10T06:32:12.896Z,83.48
2019-02-10T06:34:42.136Z,83.50
2019-02-10T06:37:11.451Z,83.76
2019-02-10T06:39:40.779Z,83.91
2019-02-10T06:42:10.296Z,84.45
2019-02-10T06:44:39.460Z,84.55
2019-02-10T06:47:08.701Z,84.90
2019-02-10T06:49:37.970Z,84.97
2019-02-10T06:52:07.238Z,85.20
2019-02-10T06:54:37.326Z,85.36
2019-02-10T06:57:06.604Z,85.68
2019-02-10T06:59:54.991Z,86.23
2019-02-10T07:02:36.212Z,86.37
2019-02-10T07:05:06.958Z,86.91
2019-02-10T07:07:36.220Z,87.06
2019-02-10T07:10:05.974Z,87.41
2019-02-10T07:12:53.619Z,87.74
2019-02-10T07:15:59.238Z,87.93
2019-02-10T07:19:04.986Z,88.11
2019-02-10T07:21:37.461Z,88.32
2019-02-10T07:24:46.520Z,88.56
2019-02-10T07:27:35.706Z,88.74
2019-02-10T07:30:44.333Z,88.96
2019-02-10T07:33:20.585Z,89.12
2019-02-10T07:36:17.497Z,89.25
2019-02-10T07:39:24.837Z,89.36
2019-02-10T07:42:44.650Z,89.49
2019-02-10T07:46:00.864Z,89.65
2019-02-10T07:49:10.756Z,89.64
2019-02-10T07:52:15.476Z,89.81
2019-02-10T07:55:13.364Z,89.90
2019-02-10T07:58:24.713Z,89.96
2019-02-10T08:01:22.986Z,90.00
2019-02-10T08:04:40.345Z,90.24
2019-02-10T08:07:59.737Z,90.33
2019-02-10T08:11:10.428Z,90.34
2019-02-10T08:13:59.357Z,90.14
2019-02-10T08:16:54.981Z,90.36
2019-02-10T08:19:58.221Z,90.58
2019-02-10T08:23:03.932Z,90.64
2019-02-10T08:26:00.137Z,90.74
2019-02-10T08:28:56.003Z,90.66
2019-02-10T08:32:04.066Z,90.64
2019-02-10T08:34:51.736Z,90.37
2019-02-10T08:37:56.170Z,90.62
2019-02-10T08:41:01.400Z,90.61
2019-02-10T08:43:57.160Z,90.47
2019-02-10T08:46:52.748Z,90.39
2019-02-10T08:49:48.383Z,90.31
2019-02-10T08:52:35.152Z,90.23
2019-02-10T08:55:04.526Z,90.47
2019-02-10T08:57:33.753Z,90.37
2019-02-10T09:00:03.030Z,90.38
2019-02-10T09:02:32.272Z,90.43
2019-02-10T09:05:01.530Z,90.17
2019-02-10T09:07:30.742Z,90.21
2019-02-10T09:10:00.028Z,90.16
2019-02-10T09:12:29.264Z,90.09
2019-02-10T09:14:58.521Z,90.03
2019-02-10T09:17:27.812Z,89.82
2019-02-10T09:19:57.047Z,89.96
2019-02-10T09:22:26.372Z,89.68
2019-02-10T09:24:55.620Z,90.04
2019-02-10T09:27:24.856Z,90.27
2019-02-10T09:29:54.145Z,90.02
2019-02-10T09:32:23.410Z,90.21
2019-02-10T09:34:52.691Z,89.98
2019-02-10T09:37:22.050Z,90.32
2019-02-10T09:39:51.486Z,89.92
2019-02-10T09:42:20.745Z,90.26
2019-02-10T09:44:49.986Z,90.20
2019-02-10T09:47:19.218Z,90.21
2019-02-10T09:49:48.443Z,90.34
2019-02-10T09:52:17.687Z,90.32
2019-02-10T09:55:06.318Z,89.97
2019-02-10T09:57:35.574Z,89.89
2019-02-10T10:00:05.653Z,89.84
2019-02-10T10:02:34.936Z,89.60
2019-02-10T10:05:04.571Z,89.50
2019-02-10T10:07:33.845Z,89.50
2019-02-10T10:10:03.172Z,89.31
2019-02-10T10:12:32.451Z,89.14
2019-02-10T10:15:01.674Z,89.02
2019-02-10T10:17:30.960Z,89.56
2019-02-10T10:20:00.266Z,89.56
2019-02-10T10:22:29.612Z,89.13
2019-02-10T10:25:00.571Z,88.78
2019-02-10T10:27:28.130Z,88.73
2019-02-10T10:29:57.451Z,88.89
2019-02-10T10:32:26.721Z,88.57
2019-02-10T10:34:56.008Z,88.70
2019-02-10T10:37:25.249Z,88.56
2019-02-10T10:39:54.528Z,88.64
2019-02-10T10:42:23.871Z,88.38
2019-02-10T10:44:53.148Z,88.13
2019-02-10T10:47:22.371Z,88.45
2019-02-10T10:49:51.690Z,88.07
2019-02-10T10:52:20.941Z,87.96
2019-02-10T10:54:50.292Z,87.52
2019-02-10T10:57:19.537Z,88.01
2019-02-10T10:59:48.767Z,88.01
2019-02-10T11:02:17.998Z,87.59
2019-02-10T11:04:47.243Z,87.30
2019-02-10T11:07:16.476Z,86.43
2019-02-10T11:09:45.787Z,86.46
2019-02-10T11:12:15.049Z,86.29
2019-02-10T11:14:44.449Z,85.59
2019-02-10T11:17:14.938Z,85.06
2019-02-10T11:19:43.127Z,84.33
2019-02-10T11:22:12.380Z,83.71
2019-02-10T11:24:41.690Z,81.18
2019-02-10T11:27:13.854Z,81.18
2019-02-10T11:29:43.195Z,80.59
2019-02-10T11:32:12.424Z,80.59
2019-02-10T11:34:46.177Z,79.68
2019-02-10T11:37:10.964Z,79.28
2019-02-10T11:39:43.741Z,78.03
2019-02-10T11:42:09.592Z,78.08
2019-02-10T11:44:38.851Z,78.08
2019-02-10T11:47:08.164Z,77.33
2019-02-10T11:49:37.417Z,77.26
2019-02-10T11:52:06.679Z,77.00
2019-02-10T11:54:35.978Z,77.00
2019-02-10T11:57:05.249Z,76.78
2019-02-10T11:59:34.555Z,75.66
2019-02-10T12:02:03.835Z,75.88
2019-02-10T12:04:33.102Z,75.88
2019-02-10T12:07:02.366Z,75.89
2019-02-10T12:09:31.595Z,75.52
2019-02-10T12:12:00.852Z,75.59
2019-02-10T12:14:30.105Z,75.54
2019-02-10T12:16:59.431Z,75.03
2019-02-10T12:19:28.735Z,75.20
2019-02-10T12:21:58.011Z,74.40
2019-02-10T12:24:27.234Z,74.99
2019-02-10T12:26:56.680Z,74.99
2019-02-10T12:29:25.895Z,75.25
2019-02-10T12:31:55.155Z,75.79
2019-02-10T12:34:24.394Z,75.95
2019-02-10T12:36:53.651Z,76.09
2019-02-10T12:39:22.921Z,76.48
2019-02-10T12:41:52.231Z,77.19
2019-02-10T12:44:21.584Z,77.14
2019-02-10T12:46:50.807Z,77.53
2019-02-10T12:49:20.085Z,78.14
2019-02-10T12:51:49.334Z,78.53
2019-02-10T12:54:18.630Z,78.75
2019-02-10T12:56:47.873Z,78.42
2019-02-10T12:59:17.153Z,78.87
2019-02-10T13:01:46.406Z,79.07
2019-02-10T13:04:15.788Z,79.18
2019-02-10T13:06:45.039Z,79.31
2019-02-10T13:09:14.313Z,79.32
2019-02-10T13:11:43.593Z,79.06
2019-02-10T13:14:12.865Z,79.39
2019-02-10T13:16:42.166Z,79.43
2019-02-10T13:19:11.432Z,79.95
2019-02-10T13:21:40.694Z,79.95
2019-02-10T13:24:09.964Z,79.56
2019-02-10T13:26:39.228Z,79.99
2019-02-10T13:29:08.526Z,80.06
2019-02-10T13:31:37.760Z,80.27
2019-02-10T13:34:07.025Z,80.76
2019-02-10T13:36:36.366Z,81.10
2019-02-10T13:39:07.564Z,80.83
2019-02-10T13:41:36.634Z,81.46
2019-02-10T13:44:06.652Z,81.46
2019-02-10T13:46:35.884Z,82.11
2019-02-10T13:49:05.185Z,82.32
2019-02-10T13:51:34.484Z,82.37
2019-02-10T13:54:03.793Z,82.27
2019-02-10T13:56:33.138Z,82.14
2019-02-10T13:59:02.408Z,81.88
2019-02-10T14:01:31.661Z,81.63
2019-02-10T14:04:00.926Z,81.85
2019-02-10T14:06:30.153Z,81.46
2019-02-10T14:08:59.428Z,81.56
2019-02-10T14:11:28.693Z,81.30
2019-02-10T14:13:57.944Z,80.90
2019-02-10T14:16:27.184Z,80.58
2019-02-10T14:18:57.070Z,80.58
2019-02-10T14:21:26.359Z,80.52
2019-02-10T14:23:55.670Z,79.96
2019-02-10T14:26:24.942Z,79.78
2019-02-10T14:28:54.224Z,79.38
2019-02-10T14:31:23.517Z,79.40
2019-02-10T14:33:52.843Z,79.37
2019-02-10T14:36:22.144Z,79.30
2019-02-10T14:38:51.460Z,79.28
2019-02-10T14:41:20.724Z,79.09
2019-02-10T14:43:49.942Z,79.04
2019-02-10T14:46:19.238Z,78.71
2019-02-10T14:48:48.553Z,78.60
2019-02-10T14:51:17.812Z,78.57
2019-02-10T14:53:47.166Z,78.70
2019-02-10T14:56:16.495Z,78.52
2019-02-10T14:58:45.742Z,78.65
2019-02-10T15:01:15.091Z,78.73
2019-02-10T15:03:44.366Z,78.76
2019-02-10T15:06:13.770Z,78.92
2019-02-10T15:08:43.040Z,79.41
2019-02-10T15:11:13.195Z,79.38
2019-02-10T15:13:42.487Z,80.17
2019-02-10T15:16:11.772Z,79.86
2019-02-10T15:18:44.360Z,80.07
2019-02-10T15:21:13.691Z,80.30
2019-02-10T15:23:42.913Z,80.39
2019-02-10T15:26:12.234Z,80.31
2019-02-10T15:28:41.587Z,80.66
2019-02-10T15:31:10.829Z,80.66
2019-02-10T15:33:40.142Z,80.23
2019-02-10T15:36:09.524Z,80.34
2019-02-10T15:38:38.764Z,80.21
2019-02-10T15:41:08.166Z,80.53
2019-02-10T15:43:37.472Z,80.69
2019-02-10T15:46:06.754Z,80.82
2019-02-10T15:48:35.947Z,80.96
2019-02-10T15:51:05.208Z,80.69
2019-02-10T15:53:34.574Z,79.90
2019-02-10T15:56:03.816Z,79.90
2019-02-10T15:58:33.125Z,79.53
2019-02-10T16:01:02.385Z,78.79
2019-02-10T16:03:31.663Z,78.91
2019-02-10T16:06:00.988Z,78.91
2019-02-10T16:08:30.256Z,78.04
2019-02-10T16:10:59.947Z,77.09
2019-02-10T16:13:29.083Z,77.09
2019-02-10T16:15:58.442Z,76.88
2019-02-10T16:18:27.739Z,75.81
2019-02-10T16:20:56.982Z,76.25
2019-02-10T16:23:26.307Z,76.21
2019-02-10T16:25:55.612Z,76.44
2019-02-10T16:28:27.412Z,76.23
2019-02-10T16:30:56.672Z,75.79
2019-02-10T16:33:26.084Z,76.21
2019-02-10T16:35:55.391Z,76.24
2019-02-10T16:38:27.777Z,75.59
2019-02-10T16:40:54.270Z,74.95
2019-02-10T16:43:23.824Z,74.88
2019-02-10T16:45:53.214Z,74.39
2019-02-10T16:48:22.705Z,74.59
2019-02-10T16:50:52.574Z,73.62
2019-02-10T16:53:22.260Z,73.62
2019-02-10T16:55:51.790Z,72.84
2019-02-10T16:58:21.049Z,72.88
2019-02-10T17:00:50.416Z,72.73
2019-02-10T17:03:20.115Z,72.14
2019-02-10T17:05:49.400Z,71.71
2019-02-10T17:08:18.910Z,71.71
2019-02-10T17:10:48.083Z,71.96
2019-02-10T17:13:19.842Z,71.91
2019-02-10T17:15:49.102Z,71.91
2019-02-10T17:18:18.445Z,72.01
2019-02-10T17:20:47.774Z,72.45
2019-02-10T17:23:17.249Z,72.53
2019-02-10T17:25:46.548Z,72.79
2019-02-10T17:28:16.010Z,72.86
2019-02-10T17:30:45.240Z,73.72
2019-02-10T17:33:14.585Z,74.04
2019-02-10T17:35:43.904Z,74.17
2019-02-10T17:38:13.238Z,74.59
2019-02-10T17:40:56.970Z,75.38
2019-02-10T17:43:28.246Z,75.45
2019-02-10T17:45:55.543Z,76.01
2019-02-10T17:48:25.014Z,76.01
2019-02-10T17:50:54.242Z,76.73
2019-02-10T17:53:23.586Z,77.33
2019-02-10T17:55:52.958Z,77.59
2019-02-10T17:58:22.299Z,77.80
2019-02-10T18:00:51.614Z,78.36
2019-02-10T18:03:20.996Z,79.50
2019-02-10T18:05:52.973Z,80.33
2019-02-10T18:08:23.022Z,80.74
2019-02-10T18:10:51.748Z,81.56
2019-02-10T18:13:21.064Z,81.85
2019-02-10T18:16:08.608Z,81.78
2019-02-10T18:18:57.220Z,82.84
2019-02-10T18:21:51.174Z,83.90
2019-02-10T18:24:45.288Z,83.90
2019-02-10T18:27:42.432Z,83.92
2019-02-10T18:30:31.656Z,84.45
2019-02-10T18:33:18.578Z,84.99
2019-02-10T18:36:05.815Z,85.25
2019-02-10T18:38:57.164Z,85.04
2019-02-10T18:42:00.693Z,85.13
2019-02-10T18:44:39.830Z,85.54
2019-02-10T18:47:31.193Z,85.77
2019-02-10T18:50:12.856Z,85.82
2019-02-10T18:53:10.275Z,86.18
2019-02-10T18:56:00.736Z,86.16
2019-02-10T18:58:54.465Z,86.16
2019-02-10T19:01:36.052Z,86.08
2019-02-10T19:04:20.278Z,85.38
2019-02-10T19:07:07.419Z,85.36
2019-02-10T19:09:58.716Z,84.85
2019-02-10T19:12:50.071Z,84.93
2019-02-10T19:15:41.240Z,85.10
2019-02-10T19:18:28.363Z,85.02
2019-02-10T19:21:09.435Z,84.58
2019-02-10T19:23:47.102Z,84.78
2019-02-10T19:26:34.196Z,85.05
2019-02-10T19:29:25.720Z,85.09
2019-02-10T19:32:00.857Z,85.29
2019-02-10T19:34:47.665Z,85.92
2019-02-10T19:37:42.116Z,85.61
2019-02-10T19:40:24.792Z,85.59
2019-02-10T19:43:12.104Z,85.79
2019-02-10T19:46:00.507Z,85.68
2019-02-10T19:48:50.529Z,85.66
2019-02-10T19:51:28.456Z,86.24
2019-02-10T19:54:16.827Z,85.72
2019-02-10T19:56:56.802Z,84.46
2019-02-10T19:59:57.344Z,82.97
2019-02-10T20:02:54.476Z,81.98
2019-02-10T20:06:01.147Z,81.07
2019-02-10T20:08:43.977Z,79.82
2019-02-10T20:11:38.148Z,80.13
2019-02-10T20:14:32.486Z,79.06
2019-02-10T20:17:19.686Z,78.92
2019-02-10T20:20:05.192Z,77.98
2019-02-10T20:22:56.503Z,78.05
2019-02-10T20:25:43.472Z,78.41
2019-02-10T20:28:21.849Z,77.80
2019-02-10T20:31:06.142Z,78.45
2019-02-10T20:33:49.285Z,78.53
2019-02-10T20:36:30.074Z,78.98
2019-02-10T20:39:06.526Z,79.03
2019-02-10T20:41:49.197Z,79.19
2019-02-10T20:44:30.126Z,78.77
2019-02-10T20:47:06.272Z,78.80
2019-02-10T20:49:57.726Z,78.93
2019-02-10T20:52:35.934Z,79.15
2019-02-10T20:55:23.342Z,79.34
2019-02-10T20:58:17.493Z,79.65
2019-02-10T21:01:08.152Z,80.11
2019-02-10T21:04:02.275Z,80.07
2019-02-10T21:06:47.192Z,79.65
2019-02-10T21:09:34.002Z,80.26
2019-02-10T21:12:20.971Z,80.57
2019-02-10T21:15:21.010Z,81.12
2019-02-10T21:18:12.030Z,81.91
2019-02-10T21:21:13.078Z,82.16
2019-02-10T21:23:59.012Z,82.75
2019-02-10T21:26:36.520Z,83.22
2019-02-10T21:29:33.883Z,82.45
2019-02-10T21:32:31.388Z,83.00
2019-02-10T21:35:25.782Z,83.48
2019-02-10T21:38:01.105Z,83.31
2019-02-10T21:40:55.331Z,83.13
2019-02-10T21:43:43.968Z,83.29
2019-02-10T21:46:30.602Z,83.95
2019-02-10T21:49:11.574Z,84.51
2019-02-10T21:51:41.145Z,84.72
2019-02-10T21:54:10.655Z,84.79
2019-02-10T21:56:40.084Z,84.95
2019-02-10T21:59:09.306Z,85.10
2019-02-10T22:01:38.590Z,85.50
2019-02-10T22:04:07.918Z,85.59
2019-02-10T22:06:37.192Z,85.86
2019-02-10T22:09:07.196Z,85.86
2019-02-10T22:11:36.422Z,86.02
2019-02-10T22:14:05.676Z,85.95
2019-02-10T22:16:35.051Z,86.08
2019-02-10T22:19:04.391Z,86.17
2019-02-10T22:21:33.648Z,86.15
2019-02-10T22:24:02.971Z,86.07
2019-02-10T22:26:32.270Z,86.28
2019-02-10T22:29:01.592Z,86.42
2019-02-10T22:31:30.854Z,86.39
2019-02-10T22:34:00.171Z,86.56
2019-02-10T22:36:29.400Z,86.80
2019-02-10T22:38:58.661Z,86.80
2019-02-10T22:41:27.920Z,86.93
2019-02-10T22:43:57.274Z,86.90
2019-02-10T22:46:26.554Z,87.09
2019-02-10T22:48:55.830Z,87.24
2019-02-10T22:51:25.156Z,87.45
2019-02-10T22:53:54.472Z,87.39
2019-02-10T22:56:23.722Z,87.35
2019-02-10T22:58:53.008Z,87.42
2019-02-10T23:01:22.236Z,87.30
2019-02-10T23:03:51.503Z,87.37
2019-02-10T23:06:20.780Z,87.42
2019-02-10T23:08:50.021Z,87.44
2019-02-10T23:11:19.268Z,87.50
2019-02-10T23:13:48.544Z,87.45
2019-02-10T23:16:17.802Z,87.40
2019-02-10T23:18:47.114Z,87.22
2019-02-10T23:21:16.394Z,87.00
2019-02-10T23:23:45.680Z,86.85
2019-02-10T23:26:14.967Z,86.86
2019-02-10T23:28:44.248Z,86.88
2019-02-10T23:31:13.540Z,86.79
2019-02-10T23:33:42.932Z,86.74
2019-02-10T23:36:12.204Z,86.54
2019-02-10T23:38:41.451Z,86.51
2019-02-10T23:41:10.760Z,85.97
2019-02-10T23:43:40.020Z,85.91
2019-02-10T23:46:09.464Z,85.62
2019-02-10T23:48:38.900Z,85.61
2019-02-10T23:51:08.176Z,85.28
2019-02-10T23:53:37.478Z,85.33
2019-02-10T23:56:06.742Z,85.15
2019-02-10T23:58:35.968Z,85.26
